Time;durP1;ratioP1;P1;durP2;ratioP2;P2;SDS_P1;SDS_P2;PMS_P1;PMS_P2;Temp;Humidity;BMP_temperature;BMP_pressure;BME280_temperature;BME280_humidity;BME280_pressure;Samples;Min_cycle;Max_cycle;Signal;HPM_P1;HPM_P2
2022/11/07 00:02:23;;;;;;;1.30;1.20;;;;;;;;;;5055910;27;92286;-62
2022/11/07 00:04:51;;;;;;;2.83;1.10;;;;;;;;;;5045693;27;94325;-62
2022/11/07 00:07:19;;;;;;;2.30;1.10;;;;;;;;;;5055497;27;93664;-62
2022/11/07 00:09:48;;;;;;;2.07;1.10;;;;;;;;;;5046390;27;92355;-62
2022/11/07 00:12:16;;;;;;;1.87;1.07;;;;;;;;;;5056004;27;92175;-62
2022/11/07 00:14:46;;;;;;;2.53;1.13;;;;;;;;;;5057385;27;92789;-62
2022/11/07 00:17:14;;;;;;;2.90;1.20;;;;;;;;;;5052689;27;92502;-63
2022/11/07 00:19:42;;;;;;;1.30;1.10;;;;;;;;;;5049921;27;92062;-62
2022/11/07 00:22:10;;;;;;;2.33;1.20;;;;;;;;;;5058862;27;92202;-62
2022/11/07 00:24:39;;;;;;;3.70;1.13;;;;;;;;;;5059997;27;93735;-62
2022/11/07 00:27:07;;;;;;;2.30;1.47;;;;;;;;;;5061357;27;93458;-62
2022/11/07 00:29:35;;;;;;;2.43;0.87;;;;;;;;;;5057587;27;93550;-62
2022/11/07 00:32:05;;;;;;;1.83;0.90;;;;;;;;;;5057876;27;92047;-62
2022/11/07 00:34:34;;;;;;;2.60;1.20;;;;;;;;;;5044746;27;94253;-62
2022/11/07 00:37:02;;;;;;;6.40;1.40;;;;;;;;;;5061135;27;92584;-62
2022/11/07 00:39:31;;;;;;;1.30;1.20;;;;;;;;;;5061036;27;92073;-62
2022/11/07 00:41:59;;;;;;;2.40;1.00;;;;;;;;;;5061342;27;91228;-62
2022/11/07 00:44:27;;;;;;;2.47;1.27;;;;;;;;;;5060098;27;95821;-62
2022/11/07 00:46:55;;;;;;;6.67;1.27;;;;;;;;;;5057518;27;94172;-62
2022/11/07 00:49:25;;;;;;;3.50;0.90;;;;;;;;;;5054192;27;93057;-62
2022/11/07 00:51:53;;;;;;;1.90;1.20;;;;;;;;;;5060753;27;92092;-62
2022/11/07 00:54:22;;;;;;;1.17;0.90;;;;;;;;;;5041142;28;94226;-62
2022/11/07 00:56:50;;;;;;;3.87;1.30;;;;;;;;;;5050703;27;92867;-61
2022/11/07 00:59:18;;;;;;;0.97;0.90;;;;;;;;;;5061841;27;92023;-62
2022/11/07 01:01:46;;;;;;;4.10;1.57;;;;;;;;;;5060672;27;92127;-62
2022/11/07 01:07:02;;;;;;;1.37;0.87;;;;;;;;;;5069323;27;94085;-62
2022/11/07 01:09:30;;;;;;;1.50;1.00;;;;;;;;;;5060662;27;92058;-62
2022/11/07 01:11:59;;;;;;;1.17;1.07;;;;;;;;;;5061068;27;92075;-62
2022/11/07 01:14:27;;;;;;;1.80;1.13;;;;;;;;;;5060045;27;95279;-62
2022/11/07 01:16:55;;;;;;;1.90;1.30;;;;;;;;;;5060519;27;94717;-62
2022/11/07 01:19:23;;;;;;;4.57;1.47;;;;;;;;;;5060488;27;92063;-61
2022/11/07 01:21:52;;;;;;;1.20;1.00;;;;;;;;;;5060480;27;94118;-62
2022/11/07 01:24:21;;;;;;;1.23;0.80;;;;;;;;;;5059949;27;93509;-62
2022/11/07 01:26:50;;;;;;;3.20;1.00;;;;;;;;;;5060610;27;92730;-62
2022/11/07 01:29:19;;;;;;;1.60;0.90;;;;;;;;;;5060393;27;92013;-62
2022/11/07 01:31:47;;;;;;;2.47;1.40;;;;;;;;;;5059569;27;91390;-62
2022/11/07 01:34:16;;;;;;;1.33;1.13;;;;;;;;;;5059761;27;93529;-62
2022/11/07 01:36:45;;;;;;;2.00;1.53;;;;;;;;;;5061108;27;93772;-62
2022/11/07 01:39:13;;;;;;;1.57;1.30;;;;;;;;;;5059671;27;93038;-61
2022/11/07 01:41:42;;;;;;;3.83;1.60;;;;;;;;;;5058577;27;92795;-62
2022/11/07 01:44:29;;;;;;;5.37;1.50;;;;;;;;;;5036983;27;93130;-62
2022/11/07 01:46:58;;;;;;;2.33;1.13;;;;;;;;;;5058404;27;95178;-62
2022/11/07 01:49:26;;;;;;;2.80;1.70;;;;;;;;;;5059540;27;92050;-62
2022/11/07 01:51:56;;;;;;;3.90;1.10;;;;;;;;;;5059900;27;92069;-62
2022/11/07 01:54:25;;;;;;;1.30;0.90;;;;;;;;;;5058871;27;94087;-62
2022/11/07 01:56:55;;;;;;;2.57;1.20;;;;;;;;;;5060095;27;93785;-62
2022/11/07 01:59:24;;;;;;;0.90;0.87;;;;;;;;;;5060051;27;92071;-62
2022/11/07 02:01:52;;;;;;;3.17;1.17;;;;;;;;;;5059183;27;92135;-62
2022/11/07 02:04:21;;;;;;;1.53;0.93;;;;;;;;;;5058271;27;94116;-62
2022/11/07 02:06:50;;;;;;;1.17;1.07;;;;;;;;;;5058109;27;94040;-62
2022/11/07 02:09:18;;;;;;;2.70;1.43;;;;;;;;;;5058737;27;92644;-62
2022/11/07 02:11:46;;;;;;;1.57;0.87;;;;;;;;;;5048694;27;93975;-62
2022/11/07 02:14:16;;;;;;;1.47;0.93;;;;;;;;;;5058129;27;93249;-62
2022/11/07 02:16:45;;;;;;;1.70;1.20;;;;;;;;;;5059096;27;92497;-62
2022/11/07 02:19:14;;;;;;;3.40;1.07;;;;;;;;;;5059886;27;92241;-62
2022/11/07 02:21:43;;;;;;;2.73;1.07;;;;;;;;;;5058879;27;91364;-62
2022/11/07 02:24:18;;;;;;;2.53;1.00;;;;;;;;;;5046002;27;94169;-62
2022/11/07 02:26:46;;;;;;;3.80;1.07;;;;;;;;;;5056186;27;93186;-62
2022/11/07 02:29:14;;;;;;;1.33;0.93;;;;;;;;;;5047862;27;94227;-62
2022/11/07 02:31:43;;;;;;;4.90;1.60;;;;;;;;;;5052739;27;92132;-62
2022/11/07 02:34:11;;;;;;;1.37;0.87;;;;;;;;;;5043091;27;93932;-62
2022/11/07 02:36:39;;;;;;;2.20;1.10;;;;;;;;;;5045070;27;92888;-62
2022/11/07 02:39:07;;;;;;;7.60;1.40;;;;;;;;;;5057946;27;92232;-62
2022/11/07 02:41:37;;;;;;;0.90;0.90;;;;;;;;;;5058756;27;91967;-62
2022/11/07 02:44:06;;;;;;;2.13;1.20;;;;;;;;;;5058577;27;94175;-62
2022/11/07 02:46:35;;;;;;;1.57;0.93;;;;;;;;;;5057775;27;93798;-63
2022/11/07 02:49:03;;;;;;;1.67;1.17;;;;;;;;;;5059067;27;91927;-62
2022/11/07 02:51:31;;;;;;;1.70;0.53;;;;;;;;;;5054734;27;93439;-62
2022/11/07 02:53:59;;;;;;;4.43;0.80;;;;;;;;;;5057194;27;94216;-62
2022/11/07 02:56:28;;;;;;;1.70;1.17;;;;;;;;;;5058178;27;94129;-62
2022/11/07 02:58:57;;;;;;;1.70;1.13;;;;;;;;;;5060056;27;92067;-63
2022/11/07 03:01:26;;;;;;;1.17;0.97;;;;;;;;;;5058288;27;92098;-63
2022/11/07 03:03:54;;;;;;;1.20;0.73;;;;;;;;;;5057280;27;93201;-62
2022/11/07 03:06:23;;;;;;;1.20;1.00;;;;;;;;;;5058479;27;92567;-63
2022/11/07 03:08:52;;;;;;;0.90;0.80;;;;;;;;;;5058998;27;92055;-62
2022/11/07 03:11:20;;;;;;;1.33;0.80;;;;;;;;;;5059557;27;91389;-63
2022/11/07 03:13:48;;;;;;;1.97;1.00;;;;;;;;;;5056837;27;93671;-63
2022/11/07 03:16:18;;;;;;;2.20;1.40;;;;;;;;;;5058437;27;92625;-62
2022/11/07 03:18:46;;;;;;;0.73;0.73;;;;;;;;;;5054593;27;93110;-63
2022/11/07 03:21:15;;;;;;;1.90;1.10;;;;;;;;;;5058827;27;92251;-63
2022/11/07 03:23:43;;;;;;;0.90;0.83;;;;;;;;;;5059202;27;94206;-62
2022/11/07 03:26:11;;;;;;;1.70;1.00;;;;;;;;;;5058821;27;93701;-62
2022/11/07 03:28:40;;;;;;;2.80;1.03;;;;;;;;;;5059071;27;93108;-63
2022/11/07 03:31:08;;;;;;;1.17;0.87;;;;;;;;;;5057564;27;91953;-63
2022/11/07 03:33:38;;;;;;;0.80;0.80;;;;;;;;;;5058648;27;92006;-63
2022/11/07 03:36:06;;;;;;;0.70;0.70;;;;;;;;;;5058536;27;93782;-63
2022/11/07 03:38:35;;;;;;;1.17;0.90;;;;;;;;;;5059089;27;92032;-63
2022/11/07 03:41:03;;;;;;;1.90;0.93;;;;;;;;;;5058763;27;92159;-63
2022/11/07 03:43:31;;;;;;;0.70;0.70;;;;;;;;;;5057695;27;94061;-63
2022/11/07 03:45:59;;;;;;;1.63;0.90;;;;;;;;;;5051101;27;93443;-62
2022/11/07 03:48:28;;;;;;;1.03;0.93;;;;;;;;;;5059237;27;91952;-63
2022/11/07 03:50:57;;;;;;;2.33;1.17;;;;;;;;;;5058773;27;92039;-63
2022/11/07 03:53:26;;;;;;;1.80;1.03;;;;;;;;;;5059361;27;93290;-63
2022/11/07 03:55:55;;;;;;;0.80;0.80;;;;;;;;;;5061393;27;93983;-62
2022/11/07 03:58:23;;;;;;;3.10;0.80;;;;;;;;;;5061878;27;92951;-62
2022/11/07 04:00:52;;;;;;;1.03;0.87;;;;;;;;;;5062637;27;91324;-62
2022/11/07 04:03:20;;;;;;;2.87;0.53;;;;;;;;;;5061633;27;94280;-63
2022/11/07 04:05:48;;;;;;;2.67;0.60;;;;;;;;;;5061372;27;92670;-62
2022/11/07 04:08:18;;;;;;;1.23;0.60;;;;;;;;;;5060894;27;92944;-62
2022/11/07 04:10:46;;;;;;;0.77;0.60;;;;;;;;;;5061417;27;92151;-62
2022/11/07 04:18:51;;;;;;;1.20;1.10;;;;;;;;;;5060461;27;92025;-62
2022/11/07 04:21:20;;;;;;;6.60;0.80;;;;;;;;;;5061431;27;92130;-62
2022/11/07 04:23:49;;;;;;;1.60;1.10;;;;;;;;;;5059982;27;94155;-62
2022/11/07 04:29:04;;;;;;;0.60;0.60;;;;;;;;;;5062123;27;91809;-62
2022/11/07 04:31:32;;;;;;;0.93;0.50;;;;;;;;;;5061488;27;92100;-62
2022/11/07 04:34:00;;;;;;;1.13;1.03;;;;;;;;;;5060425;27;97797;-63
2022/11/07 04:36:28;;;;;;;4.43;0.77;;;;;;;;;;5061685;27;94865;-62
2022/11/07 04:38:58;;;;;;;1.33;0.70;;;;;;;;;;5061725;27;92096;-62
2022/11/07 04:41:26;;;;;;;1.27;0.90;;;;;;;;;;5060862;27;92674;-62
2022/11/07 04:43:54;;;;;;;0.70;0.50;;;;;;;;;;5061251;27;94997;-62
2022/11/07 04:46:23;;;;;;;3.27;0.80;;;;;;;;;;5061364;27;93817;-64
2022/11/07 04:48:51;;;;;;;1.10;1.00;;;;;;;;;;5062009;27;91978;-63
2022/11/07 04:51:21;;;;;;;1.60;0.63;;;;;;;;;;5060663;27;93355;-62
2022/11/07 04:53:49;;;;;;;0.50;0.50;;;;;;;;;;5060656;27;94273;-62
2022/11/07 04:56:19;;;;;;;3.63;0.50;;;;;;;;;;5060924;27;93873;-62
2022/11/07 04:58:47;;;;;;;1.63;1.10;;;;;;;;;;5058237;27;93133;-62
2022/11/07 05:01:17;;;;;;;2.50;0.87;;;;;;;;;;5056237;27;93728;-62
2022/11/07 05:03:45;;;;;;;5.17;0.77;;;;;;;;;;5056305;27;95481;-62
2022/11/07 05:06:13;;;;;;;1.70;0.90;;;;;;;;;;5058776;27;95219;-62
2022/11/07 05:08:42;;;;;;;2.33;0.70;;;;;;;;;;5058368;27;92387;-62
2022/11/07 05:11:10;;;;;;;0.80;0.67;;;;;;;;;;5060722;27;92097;-62
2022/11/07 05:13:39;;;;;;;1.33;0.57;;;;;;;;;;5060342;27;93633;-62
2022/11/07 05:16:10;;;;;;;2.97;0.90;;;;;;;;;;5060444;27;95737;-63
2022/11/07 05:18:38;;;;;;;4.47;0.90;;;;;;;;;;5060582;27;92174;-62
2022/11/07 05:21:07;;;;;;;1.33;0.63;;;;;;;;;;5053287;27;92048;-62
2022/11/07 05:23:35;;;;;;;2.87;0.87;;;;;;;;;;5042918;27;94072;-62
2022/11/07 05:26:03;;;;;;;1.20;0.73;;;;;;;;;;5051586;27;97127;-64
2022/11/07 05:28:32;;;;;;;3.73;0.80;;;;;;;;;;5061063;27;91837;-62
2022/11/07 05:31:08;;;;;;;1.67;0.70;;;;;;;;;;5061273;27;92072;-63
2022/11/07 05:33:36;;;;;;;2.73;0.57;;;;;;;;;;5058493;27;93442;-62
2022/11/07 05:36:11;;;;;;;2.83;0.70;;;;;;;;;;5058026;27;92689;-64
2022/11/07 05:38:40;;;;;;;0.77;0.57;;;;;;;;;;5059978;27;92106;-63
2022/11/07 05:41:09;;;;;;;0.83;0.50;;;;;;;;;;5059309;27;91867;-62
2022/11/07 05:43:37;;;;;;;2.73;0.90;;;;;;;;;;5053326;27;92906;-63
2022/11/07 05:46:06;;;;;;;3.93;0.77;;;;;;;;;;5055822;27;93948;-63
2022/11/07 05:48:35;;;;;;;4.00;0.87;;;;;;;;;;5059502;27;93058;-63
2022/11/07 05:51:04;;;;;;;1.50;0.70;;;;;;;;;;5059884;27;93157;-63
2022/11/07 05:53:32;;;;;;;3.83;0.97;;;;;;;;;;5059511;27;94094;-63
2022/11/07 05:56:00;;;;;;;0.73;0.73;;;;;;;;;;5052315;27;93762;-63
2022/11/07 05:58:29;;;;;;;0.80;0.57;;;;;;;;;;5057354;27;91962;-63
2022/11/07 06:01:00;;;;;;;3.23;0.93;;;;;;;;;;5068171;27;92106;-63
2022/11/07 06:03:29;;;;;;;2.17;0.90;;;;;;;;;;5059757;27;92975;-63
2022/11/07 06:05:58;;;;;;;1.33;0.93;;;;;;;;;;5059229;27;94046;-63
2022/11/07 06:08:27;;;;;;;0.73;0.60;;;;;;;;;;5056739;27;91981;-63
2022/11/07 06:10:55;;;;;;;2.13;1.03;;;;;;;;;;5058660;27;92372;-62
2022/11/07 06:13:23;;;;;;;1.27;0.70;;;;;;;;;;5054299;27;95041;-64
2022/11/07 06:15:52;;;;;;;0.70;0.57;;;;;;;;;;5057394;27;93713;-59
2022/11/07 06:18:20;;;;;;;1.27;0.67;;;;;;;;;;5058512;27;92093;-54
2022/11/07 06:20:49;;;;;;;2.30;0.60;;;;;;;;;;5058687;27;92147;-57
2022/11/07 06:23:19;;;;;;;0.97;0.70;;;;;;;;;;5059293;27;93981;-55
2022/11/07 06:25:47;;;;;;;1.73;0.80;;;;;;;;;;5058151;27;93938;-55
2022/11/07 06:28:16;;;;;;;1.13;0.63;;;;;;;;;;5060024;27;91901;-59
2022/11/07 06:30:44;;;;;;;2.30;0.73;;;;;;;;;;5054906;27;91395;-55
2022/11/07 06:33:13;;;;;;;0.60;0.60;;;;;;;;;;5045550;27;93159;-55
2022/11/07 06:35:42;;;;;;;0.70;0.70;;;;;;;;;;5053621;27;92214;-55
2022/11/07 06:38:10;;;;;;;0.60;0.60;;;;;;;;;;5057999;27;92977;-55
2022/11/07 06:40:41;;;;;;;0.60;0.60;;;;;;;;;;5059819;27;92048;-55
2022/11/07 06:43:10;;;;;;;0.60;0.60;;;;;;;;;;5059225;27;94085;-55
2022/11/07 06:45:38;;;;;;;5.50;0.93;;;;;;;;;;5055311;27;94112;-55
2022/11/07 06:48:07;;;;;;;0.90;0.60;;;;;;;;;;5057255;27;92045;-56
2022/11/07 06:50:35;;;;;;;2.13;0.80;;;;;;;;;;5058392;27;92226;-55
2022/11/07 06:53:03;;;;;;;1.60;0.47;;;;;;;;;;5058091;27;93218;-56
2022/11/07 06:55:33;;;;;;;0.87;0.73;;;;;;;;;;5058886;27;92867;-55
2022/11/07 06:58:03;;;;;;;1.97;0.43;;;;;;;;;;5057071;27;92215;-56
2022/11/07 07:00:33;;;;;;;1.77;0.60;;;;;;;;;;5058721;27;94397;-55
2022/11/07 07:03:02;;;;;;;0.80;0.77;;;;;;;;;;5049837;27;93106;-55
2022/11/07 07:05:30;;;;;;;3.00;0.57;;;;;;;;;;5057860;27;94834;-56
2022/11/07 07:07:59;;;;;;;0.43;0.43;;;;;;;;;;5042769;27;92069;-56
2022/11/07 07:10:27;;;;;;;2.00;0.43;;;;;;;;;;5057686;27;92447;-56
2022/11/07 07:12:56;;;;;;;0.67;0.47;;;;;;;;;;5058611;27;93173;-56
2022/11/07 07:15:26;;;;;;;0.73;0.73;;;;;;;;;;5057914;27;92774;-56
2022/11/07 07:17:54;;;;;;;0.93;0.63;;;;;;;;;;5051186;27;91945;-56
2022/11/07 07:20:22;;;;;;;0.77;0.57;;;;;;;;;;5038303;28;91510;-56
2022/11/07 07:22:51;;;;;;;2.00;0.60;;;;;;;;;;5038420;28;93983;-56
2022/11/07 07:25:28;;;;;;;1.40;0.60;;;;;;;;;;5038325;28;93863;-56
2022/11/07 07:27:56;;;;;;;0.40;0.40;;;;;;;;;;5037201;28;94350;-56
2022/11/07 07:30:26;;;;;;;1.47;0.50;;;;;;;;;;5041826;28;92090;-57
2022/11/07 07:32:54;;;;;;;0.40;0.40;;;;;;;;;;5037121;28;93345;-56
2022/11/07 07:35:23;;;;;;;1.07;0.57;;;;;;;;;;5041468;28;92655;-56
2022/11/07 07:37:51;;;;;;;2.30;0.53;;;;;;;;;;5040195;28;92871;-56
2022/11/07 07:40:19;;;;;;;0.67;0.67;;;;;;;;;;5041144;28;93669;-57
2022/11/07 07:42:48;;;;;;;0.77;0.53;;;;;;;;;;5041084;28;93197;-56
2022/11/07 07:45:16;;;;;;;0.57;0.57;;;;;;;;;;5038152;28;93870;-56
2022/11/07 07:47:46;;;;;;;1.70;0.50;;;;;;;;;;5042193;28;92067;-55
2022/11/07 07:50:14;;;;;;;2.00;0.87;;;;;;;;;;5040806;28;92158;-56
2022/11/07 07:52:43;;;;;;;0.70;0.70;;;;;;;;;;5040738;28;94472;-56
2022/11/07 07:55:11;;;;;;;0.60;0.47;;;;;;;;;;5041148;28;93703;-55
2022/11/07 07:57:40;;;;;;;0.53;0.47;;;;;;;;;;5041568;28;92226;-56
2022/11/07 08:00:09;;;;;;;0.50;0.50;;;;;;;;;;5041082;28;92089;-56
2022/11/07 08:02:37;;;;;;;0.47;0.40;;;;;;;;;;5036604;28;92921;-56
2022/11/07 08:05:07;;;;;;;0.47;0.40;;;;;;;;;;5035701;28;92786;-59
2022/11/07 08:07:36;;;;;;;0.37;0.30;;;;;;;;;;5041168;28;92046;-57
2022/11/07 08:10:04;;;;;;;2.73;0.50;;;;;;;;;;5041160;28;91327;-56
2022/11/07 08:12:53;;;;;;;1.57;0.60;;;;;;;;;;5039859;28;93190;-55
2022/11/07 08:15:21;;;;;;;0.97;0.50;;;;;;;;;;5040569;28;94001;-54
2022/11/07 08:17:50;;;;;;;0.27;0.20;;;;;;;;;;5038003;27;93681;-54
2022/11/07 08:20:23;;;;;;;0.67;0.43;;;;;;;;;;5061164;27;92431;-55
2022/11/07 08:22:51;;;;;;;1.10;0.47;;;;;;;;;;5060099;27;92878;-55
2022/11/07 08:25:19;;;;;;;1.20;0.40;;;;;;;;;;5060903;27;93847;-55
2022/11/07 08:27:48;;;;;;;0.30;0.30;;;;;;;;;;5049452;27;91876;-55
2022/11/07 08:30:16;;;;;;;1.30;0.43;;;;;;;;;;5045540;27;92081;-55
2022/11/07 08:32:46;;;;;;;0.50;0.50;;;;;;;;;;5058837;27;93364;-55
2022/11/07 08:35:14;;;;;;;0.63;0.50;;;;;;;;;;5052534;27;92565;-55
2022/11/07 08:37:44;;;;;;;1.07;0.40;;;;;;;;;;5055081;27;92048;-55
2022/11/07 08:40:12;;;;;;;1.63;0.50;;;;;;;;;;5061122;27;92138;-55
2022/11/07 08:42:41;;;;;;;1.13;0.40;;;;;;;;;;5061077;27;94123;-55
2022/11/07 08:45:10;;;;;;;0.63;0.30;;;;;;;;;;5061406;27;92282;-56
2022/11/07 08:47:38;;;;;;;0.90;0.50;;;;;;;;;;5061793;27;92080;-55
2022/11/07 08:50:07;;;;;;;1.77;0.50;;;;;;;;;;5061656;27;92106;-55
2022/11/07 08:52:36;;;;;;;1.13;0.77;;;;;;;;;;5061266;27;92965;-55
2022/11/07 08:55:06;;;;;;;0.30;0.23;;;;;;;;;;5060942;27;92697;-55
2022/11/07 08:57:34;;;;;;;1.80;0.30;;;;;;;;;;5061323;27;92074;-55
2022/11/07 09:00:03;;;;;;;1.43;0.30;;;;;;;;;;5061594;27;91353;-55
2022/11/07 09:02:32;;;;;;;2.77;0.53;;;;;;;;;;5060973;27;94050;-55
2022/11/07 09:05:20;;;;;;;0.60;0.40;;;;;;;;;;5060475;27;92746;-55
2022/11/07 09:07:48;;;;;;;0.50;0.40;;;;;;;;;;5060287;27;93078;-61
2022/11/07 09:10:18;;;;;;;4.63;1.33;;;;;;;;;;5053367;27;92074;-55
2022/11/07 09:12:46;;;;;;;0.83;0.60;;;;;;;;;;5061624;27;94176;-58
2022/11/07 09:15:15;;;;;;;1.43;0.87;;;;;;;;;;5056410;27;95195;-57
2022/11/07 09:17:45;;;;;;;1.27;0.80;;;;;;;;;;5060035;27;92839;-58
2022/11/07 09:20:13;;;;;;;0.53;0.43;;;;;;;;;;5044455;27;92337;-57
2022/11/07 09:22:42;;;;;;;1.20;0.83;;;;;;;;;;5056788;27;96874;-58
2022/11/07 09:25:10;;;;;;;1.33;0.70;;;;;;;;;;5061325;27;92734;-58
2022/11/07 09:27:40;;;;;;;1.77;0.70;;;;;;;;;;5061423;27;92085;-58
2022/11/07 09:30:09;;;;;;;2.47;0.50;;;;;;;;;;5040842;28;91972;-58
2022/11/07 09:32:37;;;;;;;0.37;0.37;;;;;;;;;;5040372;28;93785;-57
2022/11/07 09:35:12;;;;;;;0.47;0.47;;;;;;;;;;5040401;27;93883;-58
2022/11/07 09:37:41;;;;;;;0.63;0.50;;;;;;;;;;5036860;27;92111;-57
2022/11/07 09:40:12;;;;;;;0.50;0.50;;;;;;;;;;5060461;27;92052;-55
2022/11/07 09:42:43;;;;;;;2.03;0.40;;;;;;;;;;5060283;27;94426;-56
2022/11/07 09:45:13;;;;;;;0.40;0.30;;;;;;;;;;5058500;27;92841;-57
2022/11/07 09:47:42;;;;;;;0.67;0.50;;;;;;;;;;5059366;27;92314;-58
2022/11/07 09:50:12;;;;;;;0.53;0.53;;;;;;;;;;5061264;27;91261;-57
2022/11/07 09:52:42;;;;;;;0.43;0.43;;;;;;;;;;5057631;27;93759;-56
2022/11/07 09:55:13;;;;;;;0.93;0.53;;;;;;;;;;5056376;27;92943;-57
2022/11/07 09:57:43;;;;;;;0.77;0.60;;;;;;;;;;5040338;27;94610;-58
2022/11/07 10:00:14;;;;;;;3.40;0.63;;;;;;;;;;5044002;27;92066;-58
2022/11/07 10:02:44;;;;;;;4.47;0.80;;;;;;;;;;5059276;27;93060;-58
2022/11/07 10:05:13;;;;;;;3.27;0.40;;;;;;;;;;5050885;27;92716;-58
2022/11/07 10:07:42;;;;;;;0.60;0.40;;;;;;;;;;5060386;27;91960;-58
2022/11/07 10:10:14;;;;;;;1.63;1.17;;;;;;;;;;5060630;27;92622;-58
2022/11/07 10:12:55;;;;;;;1.43;0.80;;;;;;;;;;5060307;27;92902;-58
2022/11/07 10:15:25;;;;;;;1.50;0.60;;;;;;;;;;5060407;27;92653;-58
2022/11/07 10:17:54;;;;;;;4.87;0.50;;;;;;;;;;5060159;27;92117;-58
2022/11/07 10:20:25;;;;;;;1.53;0.57;;;;;;;;;;5060523;27;92922;-58
2022/11/07 10:22:57;;;;;;;3.47;1.00;;;;;;;;;;5059846;27;93630;-58
2022/11/07 10:25:26;;;;;;;0.47;0.40;;;;;;;;;;5059295;27;94975;-59
2022/11/07 10:28:01;;;;;;;1.43;0.87;;;;;;;;;;5060314;27;92901;-59
2022/11/07 10:30:29;;;;;;;1.23;1.03;;;;;;;;;;5060201;27;92068;-58
2022/11/07 10:32:59;;;;;;;0.60;0.50;;;;;;;;;;5060360;27;94568;-59
2022/11/07 10:35:28;;;;;;;5.00;0.67;;;;;;;;;;5060446;27;92771;-59
2022/11/07 10:37:57;;;;;;;0.50;0.50;;;;;;;;;;5060138;27;91983;-58
2022/11/07 10:40:27;;;;;;;0.70;0.70;;;;;;;;;;5060399;27;91369;-58
2022/11/07 10:42:57;;;;;;;2.53;0.70;;;;;;;;;;5060065;27;92708;-58
2022/11/07 10:45:25;;;;;;;3.70;0.80;;;;;;;;;;5059344;27;92885;-60
2022/11/07 10:47:57;;;;;;;1.50;0.60;;;;;;;;;;5059541;27;92997;-58
2022/11/07 10:50:25;;;;;;;1.80;0.80;;;;;;;;;;5059315;27;92108;-58
2022/11/07 10:52:54;;;;;;;2.27;0.40;;;;;;;;;;5058905;27;93166;-58
2022/11/07 10:55:23;;;;;;;1.77;0.40;;;;;;;;;;5058712;27;92893;-58
2022/11/07 10:57:52;;;;;;;0.77;0.40;;;;;;;;;;5059756;27;92070;-58
2022/11/07 11:00:23;;;;;;;4.67;0.87;;;;;;;;;;5060300;27;91891;-58
2022/11/07 11:02:51;;;;;;;3.80;0.73;;;;;;;;;;5059062;27;93420;-58
2022/11/07 11:05:23;;;;;;;1.70;0.67;;;;;;;;;;5059117;27;92650;-58
2022/11/07 11:07:52;;;;;;;1.23;0.73;;;;;;;;;;5059423;27;92102;-58
2022/11/07 11:10:21;;;;;;;0.97;0.50;;;;;;;;;;5059599;27;92109;-58
2022/11/07 11:12:49;;;;;;;1.23;0.63;;;;;;;;;;5058785;27;95087;-58
2022/11/07 11:15:19;;;;;;;3.60;0.60;;;;;;;;;;5059104;27;96195;-58
2022/11/07 11:17:48;;;;;;;1.20;0.50;;;;;;;;;;5056427;27;92054;-58
2022/11/07 11:20:24;;;;;;;3.40;0.93;;;;;;;;;;5038093;28;92068;-58
2022/11/07 11:22:53;;;;;;;1.50;0.60;;;;;;;;;;5038436;28;93029;-58
2022/11/07 11:25:22;;;;;;;4.37;1.07;;;;;;;;;;5038750;28;92792;-58
2022/11/07 11:27:52;;;;;;;1.33;0.63;;;;;;;;;;5039283;28;92107;-58
2022/11/07 11:30:20;;;;;;;0.73;0.50;;;;;;;;;;5039685;28;91288;-58
2022/11/07 11:32:51;;;;;;;1.20;0.60;;;;;;;;;;5038632;28;94285;-58
2022/11/07 11:35:29;;;;;;;3.60;1.10;;;;;;;;;;5038442;28;92415;-59
2022/11/07 11:37:59;;;;;;;2.17;0.70;;;;;;;;;;5038853;28;92934;-58
2022/11/07 11:40:27;;;;;;;1.60;0.93;;;;;;;;;;5038994;28;92021;-58
2022/11/07 11:42:58;;;;;;;1.90;0.60;;;;;;;;;;5039072;28;94684;-58
2022/11/07 11:45:29;;;;;;;2.60;0.80;;;;;;;;;;5038599;28;93526;-59
2022/11/07 11:48:01;;;;;;;1.27;0.70;;;;;;;;;;5038921;28;92098;-58
2022/11/07 11:50:32;;;;;;;3.37;0.60;;;;;;;;;;5038479;28;92045;-58
2022/11/07 11:53:00;;;;;;;3.20;0.60;;;;;;;;;;5038355;28;93141;-58
2022/11/07 11:55:30;;;;;;;0.97;0.60;;;;;;;;;;5039113;28;92954;-58
2022/11/07 11:58:00;;;;;;;1.57;0.60;;;;;;;;;;5039291;28;91971;-58
2022/11/07 12:00:28;;;;;;;2.97;1.07;;;;;;;;;;5038860;28;91927;-58
2022/11/07 12:03:11;;;;;;;2.83;0.77;;;;;;;;;;5037648;28;94137;-58
2022/11/07 12:05:58;;;;;;;1.07;0.67;;;;;;;;;;5025874;28;95799;-58
2022/11/07 12:08:31;;;;;;;5.33;1.10;;;;;;;;;;5038644;28;92109;-58
2022/11/07 12:11:00;;;;;;;3.60;0.90;;;;;;;;;;5038003;28;92161;-58
2022/11/07 12:13:30;;;;;;;3.00;0.90;;;;;;;;;;5038060;27;93311;-58
2022/11/07 12:16:04;;;;;;;2.43;0.90;;;;;;;;;;5040894;28;94028;-58
2022/11/07 12:18:35;;;;;;;2.07;1.07;;;;;;;;;;5041141;27;92100;-58
2022/11/07 12:21:08;;;;;;;0.93;0.67;;;;;;;;;;5041757;28;91161;-58
2022/11/07 12:23:44;;;;;;;1.00;0.93;;;;;;;;;;5041113;28;95607;-58
2022/11/07 12:26:14;;;;;;;2.47;1.10;;;;;;;;;;5041078;28;93921;-58
2022/11/07 12:28:45;;;;;;;1.60;1.00;;;;;;;;;;5041366;28;93013;-58
2022/11/07 12:31:18;;;;;;;0.60;0.50;;;;;;;;;;5041845;28;92197;-58
2022/11/07 12:33:48;;;;;;;3.67;1.47;;;;;;;;;;5041536;28;92923;-58
2022/11/07 12:36:21;;;;;;;3.17;1.00;;;;;;;;;;5041183;28;92939;-58
2022/11/07 12:38:57;;;;;;;6.73;0.87;;;;;;;;;;5041650;28;92119;-58
2022/11/07 12:41:29;;;;;;;2.53;0.70;;;;;;;;;;5041595;28;92067;-58
2022/11/07 12:44:01;;;;;;;0.77;0.57;;;;;;;;;;5041023;28;94012;-58
2022/11/07 12:46:31;;;;;;;1.80;0.77;;;;;;;;;;5040720;28;92976;-58
2022/11/07 12:49:05;;;;;;;1.00;0.77;;;;;;;;;;5040946;28;92101;-58
2022/11/07 12:51:38;;;;;;;1.40;0.83;;;;;;;;;;5041266;28;92063;-58
2022/11/07 12:54:10;;;;;;;1.07;0.77;;;;;;;;;;5040235;28;94072;-58
2022/11/07 12:56:43;;;;;;;1.80;1.03;;;;;;;;;;5040714;28;94757;-58
2022/11/07 12:59:12;;;;;;;1.43;0.83;;;;;;;;;;5041738;28;92071;-58
2022/11/07 13:01:42;;;;;;;3.03;0.90;;;;;;;;;;5040921;28;92028;-59
2022/11/07 13:04:11;;;;;;;2.60;0.70;;;;;;;;;;5041171;28;93071;-58
2022/11/07 13:06:42;;;;;;;3.50;1.17;;;;;;;;;;5041355;28;91782;-59
2022/11/07 13:09:13;;;;;;;1.33;0.83;;;;;;;;;;5041079;28;92057;-59
2022/11/07 13:11:43;;;;;;;2.13;0.70;;;;;;;;;;5041410;28;91230;-59
2022/11/07 13:14:29;;;;;;;2.73;1.47;;;;;;;;;;5040628;28;93070;-60
2022/11/07 13:17:05;;;;;;;1.63;1.13;;;;;;;;;;5040389;28;92736;-59
2022/11/07 13:19:34;;;;;;;3.43;0.90;;;;;;;;;;5039993;28;93585;-59
2022/11/07 13:22:04;;;;;;;3.00;0.70;;;;;;;;;;5041215;28;92109;-59
2022/11/07 13:24:35;;;;;;;1.33;0.70;;;;;;;;;;5040359;28;93154;-60
2022/11/07 13:27:03;;;;;;;0.83;0.73;;;;;;;;;;5040631;28;93914;-61
2022/11/07 13:29:35;;;;;;;3.70;0.90;;;;;;;;;;5039348;28;92061;-60
2022/11/07 13:32:06;;;;;;;0.60;0.40;;;;;;;;;;5040953;28;92129;-60
2022/11/07 13:34:39;;;;;;;4.90;0.77;;;;;;;;;;5040244;28;93097;-60
2022/11/07 13:37:11;;;;;;;2.17;1.10;;;;;;;;;;5040300;28;93995;-58
2022/11/07 13:39:40;;;;;;;1.23;0.37;;;;;;;;;;5040962;28;92048;-60
2022/11/07 13:42:09;;;;;;;2.57;0.63;;;;;;;;;;5040135;28;92052;-59
2022/11/07 13:44:38;;;;;;;1.23;0.60;;;;;;;;;;5039146;28;94283;-59
2022/11/07 13:47:07;;;;;;;0.87;0.80;;;;;;;;;;5039827;28;93758;-59
2022/11/07 13:49:37;;;;;;;1.43;0.97;;;;;;;;;;5040536;28;92377;-60
2022/11/07 13:52:14;;;;;;;1.50;0.80;;;;;;;;;;5040047;28;92112;-60
2022/11/07 13:54:45;;;;;;;2.60;1.40;;;;;;;;;;5040325;28;93082;-59
2022/11/07 13:57:14;;;;;;;1.70;0.83;;;;;;;;;;5040050;28;92842;-59
2022/11/07 13:59:44;;;;;;;3.43;0.80;;;;;;;;;;5040714;28;92082;-59
2022/11/07 14:02:19;;;;;;;2.17;0.77;;;;;;;;;;5041028;28;91472;-59
2022/11/07 14:04:51;;;;;;;1.20;0.60;;;;;;;;;;5040144;28;94143;-59
2022/11/07 14:07:41;;;;;;;1.23;0.77;;;;;;;;;;5040466;28;94310;-60
2022/11/07 14:10:14;;;;;;;1.70;0.50;;;;;;;;;;5039788;28;93078;-58
2022/11/07 14:12:43;;;;;;;2.80;0.67;;;;;;;;;;5040076;28;92147;-61
2022/11/07 14:15:14;;;;;;;2.83;0.63;;;;;;;;;;5039802;28;93425;-60
2022/11/07 14:17:42;;;;;;;0.50;0.50;;;;;;;;;;5039577;28;92858;-60
2022/11/07 14:20:17;;;;;;;1.97;0.70;;;;;;;;;;5039534;28;91924;-60
2022/11/07 14:22:50;;;;;;;3.13;0.50;;;;;;;;;;5040160;28;91898;-60
2022/11/07 14:25:21;;;;;;;2.10;0.80;;;;;;;;;;5039801;28;93269;-60
2022/11/07 14:27:50;;;;;;;1.13;0.50;;;;;;;;;;5040288;28;94110;-60
2022/11/07 14:30:18;;;;;;;0.70;0.50;;;;;;;;;;5040330;28;92258;-58
2022/11/07 14:32:48;;;;;;;3.30;0.70;;;;;;;;;;5039848;28;92078;-58
2022/11/07 14:35:18;;;;;;;0.70;0.70;;;;;;;;;;5038990;28;92974;-58
2022/11/07 14:37:46;;;;;;;1.93;1.03;;;;;;;;;;5038316;27;94904;-59
2022/11/07 14:40:16;;;;;;;2.43;0.83;;;;;;;;;;5039221;28;91772;-58
2022/11/07 14:42:44;;;;;;;0.60;0.60;;;;;;;;;;5039417;28;91776;-58
2022/11/07 14:45:14;;;;;;;3.63;0.63;;;;;;;;;;5038869;28;92879;-58
2022/11/07 14:47:43;;;;;;;2.30;0.57;;;;;;;;;;5039160;28;92794;-58
2022/11/07 14:50:13;;;;;;;0.60;0.50;;;;;;;;;;5039323;28;92110;-58
2022/11/07 14:52:41;;;;;;;1.50;0.87;;;;;;;;;;5040013;28;91257;-60
2022/11/07 14:55:13;;;;;;;0.50;0.50;;;;;;;;;;5038808;28;92741;-58
2022/11/07 14:57:42;;;;;;;2.20;1.07;;;;;;;;;;5039150;28;93012;-59
2022/11/07 15:00:13;;;;;;;0.50;0.50;;;;;;;;;;5038970;28;92905;-59
2022/11/07 15:02:41;;;;;;;2.43;0.60;;;;;;;;;;5039866;28;92066;-59
2022/11/07 15:05:21;;;;;;;2.53;0.83;;;;;;;;;;5039262;28;94208;-59
2022/11/07 15:07:49;;;;;;;1.43;0.77;;;;;;;;;;5039361;28;92818;-59
2022/11/07 15:10:25;;;;;;;0.43;0.40;;;;;;;;;;5039082;28;92119;-59